BCS74R DAUA-DAUE
Flight info
| Callsign | BCS74R |
|---|---|
| Flight time | 0h 44m |
| Altitude | 23000 |
| Route | ADR J40 TIO UR990 MNA |
| Aircraft | B752/M-SDE3FGHIM3RWXY/LB1 |
Departure
| Time | 2026-04-27 14:30 |
|---|---|
| Airport | Touat-Cheikh Sidi Mohamed Belkebir Airport (DAUA) |
Arrival
| Time | 2026-04-27 15:14 |
|---|---|
| Airport | El Golea Airport (DAUE) |
| Time | Latitude | Longitude | Altitude | Speed | Heading |
|---|---|---|---|---|---|
| 2026-04-27 14:05 | 27.84202 | -0.18758 | 923 ft | 0 kts | 171° |
| 2026-04-27 14:22 | 27.84201 | -0.18758 | 922 ft | 0 kts | 171° |
| 2026-04-27 14:22 | 27.84192 | -0.18756 | 922 ft | 2 kts | 171° |
| 2026-04-27 14:22 | 27.84174 | -0.18753 | 922 ft | 2 kts | 173° |
| 2026-04-27 14:23 | 27.84153 | -0.18750 | 922 ft | 3 kts | 174° |
| 2026-04-27 14:23 | 27.84126 | -0.18747 | 922 ft | 5 kts | 174° |
| 2026-04-27 14:23 | 27.84081 | -0.18739 | 922 ft | 7 kts | 157° |
| 2026-04-27 14:23 | 27.84045 | -0.18701 | 922 ft | 8 kts | 131° |
| 2026-04-27 14:24 | 27.84032 | -0.18684 | 922 ft | 9 kts | 129° |
| 2026-04-27 14:24 | 27.84019 | -0.18666 | 922 ft | 10 kts | 130° |
| 2026-04-27 14:24 | 27.84010 | -0.18654 | 922 ft | 3 kts | 130° |
| 2026-04-27 14:25 | 27.83984 | -0.18621 | 922 ft | 7 kts | 131° |
| 2026-04-27 14:25 | 27.83969 | -0.18602 | 921 ft | 8 kts | 131° |
| 2026-04-27 14:25 | 27.83939 | -0.18557 | 921 ft | 8 kts | 110° |
| 2026-04-27 14:25 | 27.83947 | -0.18491 | 921 ft | 9 kts | 64° |
| 2026-04-27 14:26 | 27.83986 | -0.18434 | 921 ft | 9 kts | 44° |
| 2026-04-27 14:26 | 27.84037 | -0.18381 | 921 ft | 10 kts | 43° |
| 2026-04-27 14:26 | 27.84098 | -0.18322 | 922 ft | 12 kts | 39° |
| 2026-04-27 14:26 | 27.84168 | -0.18258 | 922 ft | 13 kts | 39° |
| 2026-04-27 14:27 | 27.84248 | -0.18186 | 922 ft | 15 kts | 38° |
| 2026-04-27 14:27 | 27.84338 | -0.18105 | 922 ft | 17 kts | 38° |
| 2026-04-27 14:27 | 27.84436 | -0.18017 | 922 ft | 18 kts | 38° |
| 2026-04-27 14:27 | 27.84544 | -0.17919 | 922 ft | 20 kts | 40° |
| 2026-04-27 14:28 | 27.84661 | -0.17808 | 922 ft | 22 kts | 40° |
| 2026-04-27 14:28 | 27.84753 | -0.17756 | 922 ft | 8 kts | 3° |
| 2026-04-27 14:28 | 27.84797 | -0.17746 | 922 ft | 3 kts | 37° |
| 2026-04-27 14:28 | 27.84804 | -0.17723 | 923 ft | 3 kts | 96° |
| 2026-04-27 14:29 | 27.84789 | -0.17703 | 923 ft | 3 kts | 172° |
| 2026-04-27 14:29 | 27.84761 | -0.17720 | 922 ft | 6 kts | 216° |
| 2026-04-27 14:29 | 27.84719 | -0.17756 | 922 ft | 15 kts | 219° |
| 2026-04-27 14:29 | 27.84467 | -0.17991 | 922 ft | 78 kts | 219° |
| 2026-04-27 14:30 | 27.83888 | -0.18533 | 922 ft | 137 kts | 220° |
| 2026-04-27 14:30 | 27.83025 | -0.19361 | 1093 ft | 180 kts | 216° |
| 2026-04-27 14:30 | 27.82071 | -0.20346 | 1904 ft | 187 kts | 220° |
| 2026-04-27 14:30 | 27.81194 | -0.21283 | 2691 ft | 173 kts | 220° |
| 2026-04-27 14:31 | 27.80249 | -0.22280 | 2673 ft | 199 kts | 223° |
| 2026-04-27 14:31 | 27.79228 | -0.23365 | 2989 ft | 207 kts | 222° |
| 2026-04-27 14:31 | 27.78098 | -0.24545 | 3042 ft | 231 kts | 225° |
| 2026-04-27 14:31 | 27.77227 | -0.26141 | 3269 ft | 250 kts | 253° |
| 2026-04-27 14:32 | 27.77178 | -0.28166 | 3443 ft | 279 kts | 281° |
| 2026-04-27 14:32 | 27.78126 | -0.30214 | 4189 ft | 310 kts | 308° |
| 2026-04-27 14:32 | 27.79778 | -0.31746 | 5531 ft | 317 kts | 328° |
| 2026-04-27 14:32 | 27.81877 | -0.32639 | 6728 ft | 323 kts | 347° |
| 2026-04-27 14:33 | 27.84133 | -0.32808 | 7197 ft | 335 kts | 4° |
| 2026-04-27 14:33 | 27.86414 | -0.32138 | 7829 ft | 337 kts | 24° |
| 2026-04-27 14:33 | 27.88374 | -0.30736 | 8411 ft | 341 kts | 41° |
| 2026-04-27 14:33 | 27.90050 | -0.28806 | 9020 ft | 343 kts | 47° |
| 2026-04-27 14:34 | 27.91697 | -0.26823 | 9642 ft | 346 kts | 46° |
| 2026-04-27 14:34 | 27.93341 | -0.24849 | 10201 ft | 351 kts | 46° |
| 2026-04-27 14:34 | 27.95047 | -0.22800 | 10751 ft | 356 kts | 46° |
| 2026-04-27 14:34 | 27.96740 | -0.20766 | 11313 ft | 359 kts | 45° |
| 2026-04-27 14:35 | 27.98569 | -0.18840 | 11914 ft | 359 kts | 34° |
| 2026-04-27 14:35 | 28.00723 | -0.17346 | 12434 ft | 360 kts | 23° |
| 2026-04-27 14:35 | 28.02990 | -0.16190 | 12926 ft | 362 kts | 18° |
| 2026-04-27 14:35 | 28.05364 | -0.15165 | 13492 ft | 363 kts | 16° |
| 2026-04-27 14:36 | 28.07775 | -0.14217 | 13967 ft | 367 kts | 14° |
| 2026-04-27 14:36 | 28.10195 | -0.13319 | 14475 ft | 369 kts | 13° |
| 2026-04-27 14:36 | 28.12694 | -0.12425 | 14951 ft | 373 kts | 13° |
| 2026-04-27 14:36 | 28.15164 | -0.11557 | 15471 ft | 373 kts | 13° |
| 2026-04-27 14:37 | 28.17693 | -0.10677 | 15892 ft | 378 kts | 12° |
| 2026-04-27 14:37 | 28.20201 | -0.09808 | 16352 ft | 380 kts | 12° |
| 2026-04-27 14:37 | 28.22758 | -0.08925 | 16844 ft | 382 kts | 12° |
| 2026-04-27 14:37 | 28.25307 | -0.08046 | 17260 ft | 385 kts | 12° |
| 2026-04-27 14:38 | 28.27908 | -0.07148 | 17685 ft | 388 kts | 12° |
| 2026-04-27 14:38 | 28.30511 | -0.06252 | 18075 ft | 392 kts | 12° |
| 2026-04-27 14:38 | 28.33122 | -0.05352 | 18438 ft | 396 kts | 13° |
| 2026-04-27 14:38 | 28.35783 | -0.04433 | 18867 ft | 398 kts | 13° |
| 2026-04-27 14:39 | 28.38468 | -0.03507 | 19139 ft | 405 kts | 13° |
| 2026-04-27 14:39 | 28.41160 | -0.02576 | 19642 ft | 404 kts | 13° |
| 2026-04-27 14:39 | 28.43894 | -0.01631 | 19816 ft | 414 kts | 13° |
| 2026-04-27 14:39 | 28.46674 | -0.00670 | 20349 ft | 413 kts | 13° |
| 2026-04-27 14:40 | 28.49434 | 0.00285 | 20630 ft | 419 kts | 13° |
| 2026-04-27 14:40 | 28.52238 | 0.01256 | 20980 ft | 423 kts | 13° |
| 2026-04-27 14:40 | 28.55104 | 0.02249 | 21318 ft | 428 kts | 13° |
| 2026-04-27 14:40 | 28.57985 | 0.03248 | 21697 ft | 431 kts | 13° |
| 2026-04-27 14:41 | 28.60860 | 0.04245 | 22005 ft | 436 kts | 13° |
| 2026-04-27 14:41 | 28.63766 | 0.05253 | 22412 ft | 438 kts | 13° |
| 2026-04-27 14:41 | 28.66715 | 0.06277 | 22686 ft | 443 kts | 13° |
| 2026-04-27 14:41 | 28.69706 | 0.07317 | 22881 ft | 446 kts | 13° |
| 2026-04-27 14:42 | 28.72665 | 0.08345 | 22866 ft | 448 kts | 14° |
| 2026-04-27 14:42 | 28.75673 | 0.09392 | 22860 ft | 446 kts | 13° |
| 2026-04-27 14:42 | 28.78635 | 0.10424 | 22863 ft | 444 kts | 13° |
| 2026-04-27 14:42 | 28.81620 | 0.11464 | 22858 ft | 445 kts | 13° |
| 2026-04-27 14:43 | 28.84603 | 0.12501 | 22873 ft | 456 kts | 13° |
| 2026-04-27 14:43 | 28.87696 | 0.13579 | 22863 ft | 467 kts | 13° |
| 2026-04-27 14:43 | 28.90879 | 0.14688 | 22858 ft | 478 kts | 13° |
| 2026-04-27 14:43 | 28.94065 | 0.15798 | 22863 ft | 488 kts | 13° |
| 2026-04-27 14:44 | 28.97351 | 0.16946 | 22856 ft | 497 kts | 13° |
| 2026-04-27 14:44 | 29.00752 | 0.18134 | 22855 ft | 506 kts | 13° |
| 2026-04-27 14:44 | 29.04106 | 0.19307 | 22859 ft | 514 kts | 13° |
| 2026-04-27 14:44 | 29.07593 | 0.20528 | 22863 ft | 521 kts | 13° |
| 2026-04-27 14:45 | 29.11048 | 0.21740 | 22862 ft | 524 kts | 13° |
| 2026-04-27 14:45 | 29.14576 | 0.23043 | 22850 ft | 526 kts | 18° |
| 2026-04-27 14:45 | 29.17885 | 0.24800 | 22870 ft | 529 kts | 27° |
| 2026-04-27 14:45 | 29.20979 | 0.27109 | 22869 ft | 531 kts | 36° |
| 2026-04-27 14:46 | 29.23770 | 0.29925 | 22875 ft | 531 kts | 45° |
| 2026-04-27 14:46 | 29.26165 | 0.33156 | 22880 ft | 531 kts | 54° |
| 2026-04-27 14:46 | 29.28171 | 0.36713 | 22873 ft | 532 kts | 59° |
| 2026-04-27 14:46 | 29.30100 | 0.40364 | 22872 ft | 532 kts | 59° |
| 2026-04-27 14:47 | 29.32007 | 0.44001 | 22871 ft | 532 kts | 59° |
| 2026-04-27 14:47 | 29.33900 | 0.47639 | 22874 ft | 532 kts | 59° |
| 2026-04-27 14:47 | 29.35804 | 0.51312 | 22883 ft | 533 kts | 60° |
| 2026-04-27 14:47 | 29.37693 | 0.54966 | 22883 ft | 534 kts | 60° |
| 2026-04-27 14:48 | 29.39571 | 0.58610 | 22881 ft | 532 kts | 59° |
| 2026-04-27 14:48 | 29.43337 | 0.65929 | 22889 ft | 533 kts | 60° |
| 2026-04-27 14:48 | 29.45246 | 0.69644 | 22878 ft | 533 kts | 59° |
| 2026-04-27 14:49 | 29.47129 | 0.73316 | 22882 ft | 533 kts | 59° |
| 2026-04-27 14:49 | 29.49001 | 0.76965 | 22881 ft | 532 kts | 59° |
| 2026-04-27 14:49 | 29.50870 | 0.80618 | 22882 ft | 531 kts | 59° |
| 2026-04-27 14:49 | 29.52758 | 0.84306 | 22895 ft | 533 kts | 59° |
| 2026-04-27 14:50 | 29.54622 | 0.87954 | 22893 ft | 535 kts | 59° |
| 2026-04-27 14:50 | 29.56505 | 0.91639 | 22898 ft | 534 kts | 59° |
| 2026-04-27 14:50 | 29.58398 | 0.95352 | 22895 ft | 532 kts | 59° |
| 2026-04-27 14:50 | 29.60254 | 0.98990 | 22905 ft | 533 kts | 59° |
| 2026-04-27 14:51 | 29.62145 | 1.02703 | 22900 ft | 534 kts | 59° |
| 2026-04-27 14:51 | 29.64011 | 1.06371 | 22905 ft | 532 kts | 59° |
| 2026-04-27 14:51 | 29.65879 | 1.10045 | 22902 ft | 531 kts | 59° |
| 2026-04-27 14:51 | 29.67116 | 1.12481 | 22906 ft | 529 kts | 59° |
| 2026-04-27 14:52 | 29.69545 | 1.17269 | 22896 ft | 504 kts | 59° |
| 2026-04-27 14:52 | 29.71279 | 1.20689 | 22894 ft | 484 kts | 59° |
| 2026-04-27 14:52 | 29.72938 | 1.23970 | 22894 ft | 472 kts | 59° |
| 2026-04-27 14:52 | 29.74584 | 1.27221 | 22914 ft | 480 kts | 59° |
| 2026-04-27 14:53 | 29.76302 | 1.30618 | 22914 ft | 488 kts | 59° |
| 2026-04-27 14:53 | 29.78041 | 1.33991 | 22904 ft | 483 kts | 58° |
| 2026-04-27 14:53 | 29.79729 | 1.37223 | 22892 ft | 466 kts | 58° |
| 2026-04-27 14:53 | 29.81372 | 1.40380 | 22908 ft | 447 kts | 57° |
| 2026-04-27 14:54 | 29.82933 | 1.43382 | 22887 ft | 437 kts | 57° |
| 2026-04-27 14:54 | 29.84524 | 1.46438 | 22596 ft | 448 kts | 58° |
| 2026-04-27 14:54 | 29.86137 | 1.49544 | 22215 ft | 452 kts | 58° |
| 2026-04-27 14:54 | 29.87743 | 1.52639 | 22063 ft | 441 kts | 58° |
| 2026-04-27 14:55 | 29.89319 | 1.55678 | 21616 ft | 440 kts | 58° |
| 2026-04-27 14:55 | 29.90874 | 1.58680 | 21188 ft | 436 kts | 58° |
| 2026-04-27 14:55 | 29.92409 | 1.61642 | 20761 ft | 430 kts | 57° |
| 2026-04-27 14:55 | 29.93940 | 1.64602 | 20341 ft | 424 kts | 57° |
| 2026-04-27 14:56 | 29.95445 | 1.67513 | 19924 ft | 419 kts | 58° |
| 2026-04-27 14:56 | 29.96923 | 1.70372 | 19516 ft | 416 kts | 58° |
| 2026-04-27 14:56 | 29.98390 | 1.73214 | 19122 ft | 413 kts | 58° |
| 2026-04-27 14:56 | 29.99865 | 1.76072 | 18720 ft | 411 kts | 58° |
| 2026-04-27 14:57 | 30.01328 | 1.78911 | 18329 ft | 407 kts | 58° |
| 2026-04-27 14:57 | 30.02759 | 1.81687 | 17947 ft | 404 kts | 58° |
| 2026-04-27 14:57 | 30.04181 | 1.84452 | 17570 ft | 399 kts | 58° |
| 2026-04-27 14:57 | 30.05604 | 1.87217 | 17189 ft | 396 kts | 58° |
| 2026-04-27 14:58 | 30.07000 | 1.89932 | 16822 ft | 393 kts | 58° |
| 2026-04-27 14:58 | 30.08397 | 1.92652 | 16461 ft | 392 kts | 58° |
| 2026-04-27 14:58 | 30.09798 | 1.95379 | 16105 ft | 391 kts | 58° |
| 2026-04-27 14:58 | 30.11177 | 1.98066 | 15742 ft | 390 kts | 58° |
| 2026-04-27 14:59 | 30.12553 | 2.00750 | 15387 ft | 388 kts | 58° |
| 2026-04-27 14:59 | 30.13921 | 2.03421 | 15030 ft | 385 kts | 58° |
| 2026-04-27 14:59 | 30.15284 | 2.06082 | 14679 ft | 383 kts | 58° |
| 2026-04-27 14:59 | 30.16635 | 2.08721 | 14332 ft | 381 kts | 59° |
| 2026-04-27 15:00 | 30.17980 | 2.11352 | 13993 ft | 381 kts | 59° |
| 2026-04-27 15:00 | 30.19330 | 2.13993 | 13647 ft | 380 kts | 59° |
| 2026-04-27 15:00 | 30.20668 | 2.16615 | 13306 ft | 377 kts | 59° |
| 2026-04-27 15:00 | 30.21990 | 2.19205 | 12965 ft | 374 kts | 59° |
| 2026-04-27 15:01 | 30.23305 | 2.21785 | 12619 ft | 371 kts | 58° |
| 2026-04-27 15:01 | 30.24618 | 2.24360 | 12280 ft | 368 kts | 59° |
| 2026-04-27 15:01 | 30.25912 | 2.26899 | 11947 ft | 364 kts | 59° |
| 2026-04-27 15:01 | 30.27185 | 2.29400 | 11613 ft | 361 kts | 59° |
| 2026-04-27 15:02 | 30.28454 | 2.31894 | 11293 ft | 358 kts | 59° |
| 2026-04-27 15:02 | 30.29722 | 2.34390 | 10967 ft | 356 kts | 59° |
| 2026-04-27 15:02 | 30.30966 | 2.36836 | 10653 ft | 354 kts | 59° |
| 2026-04-27 15:02 | 30.32220 | 2.39305 | 10335 ft | 353 kts | 59° |
| 2026-04-27 15:03 | 30.33454 | 2.41738 | 10016 ft | 349 kts | 59° |
| 2026-04-27 15:03 | 30.34681 | 2.44157 | 9701 ft | 344 kts | 59° |
| 2026-04-27 15:03 | 30.35888 | 2.46538 | 9395 ft | 338 kts | 60° |
| 2026-04-27 15:03 | 30.37059 | 2.48852 | 9120 ft | 331 kts | 59° |
| 2026-04-27 15:04 | 30.38209 | 2.51125 | 8876 ft | 325 kts | 59° |
| 2026-04-27 15:04 | 30.39342 | 2.53363 | 8656 ft | 317 kts | 59° |
| 2026-04-27 15:04 | 30.40451 | 2.55559 | 8447 ft | 310 kts | 59° |
| 2026-04-27 15:04 | 30.41544 | 2.57719 | 8259 ft | 302 kts | 59° |
| 2026-04-27 15:05 | 30.42593 | 2.59798 | 8088 ft | 295 kts | 59° |
| 2026-04-27 15:05 | 30.43612 | 2.61816 | 7906 ft | 291 kts | 59° |
| 2026-04-27 15:05 | 30.44633 | 2.63841 | 7726 ft | 293 kts | 59° |
| 2026-04-27 15:05 | 30.45677 | 2.65909 | 7524 ft | 294 kts | 60° |
| 2026-04-27 15:06 | 30.46709 | 2.67959 | 7304 ft | 294 kts | 60° |
| 2026-04-27 15:06 | 30.47743 | 2.70011 | 7088 ft | 293 kts | 60° |
| 2026-04-27 15:06 | 30.48766 | 2.72043 | 6857 ft | 292 kts | 60° |
| 2026-04-27 15:06 | 30.49796 | 2.74089 | 6620 ft | 290 kts | 60° |
| 2026-04-27 15:07 | 30.50800 | 2.76084 | 6379 ft | 288 kts | 60° |
| 2026-04-27 15:07 | 30.51810 | 2.78095 | 6128 ft | 286 kts | 59° |
| 2026-04-27 15:07 | 30.52813 | 2.80089 | 5877 ft | 285 kts | 59° |
| 2026-04-27 15:07 | 30.53786 | 2.82093 | 5632 ft | 283 kts | 67° |
| 2026-04-27 15:08 | 30.54173 | 2.84300 | 5401 ft | 279 kts | 95° |
| 2026-04-27 15:08 | 30.53666 | 2.86439 | 5008 ft | 274 kts | 125° |
| 2026-04-27 15:08 | 30.52359 | 2.88007 | 4753 ft | 269 kts | 151° |
| 2026-04-27 15:08 | 30.50713 | 2.89068 | 4442 ft | 273 kts | 154° |
| 2026-04-27 15:09 | 30.49028 | 2.90128 | 4113 ft | 270 kts | 154° |
| 2026-04-27 15:09 | 30.47363 | 2.91149 | 3842 ft | 266 kts | 155° |
| 2026-04-27 15:09 | 30.45719 | 2.92138 | 3606 ft | 271 kts | 157° |
| 2026-04-27 15:09 | 30.43945 | 2.92657 | 3290 ft | 250 kts | 187° |
| 2026-04-27 15:10 | 30.42373 | 2.92114 | 3156 ft | 232 kts | 218° |
| 2026-04-27 15:10 | 30.41361 | 2.90737 | 2974 ft | 220 kts | 251° |
| 2026-04-27 15:10 | 30.41237 | 2.89059 | 2798 ft | 203 kts | 287° |
| 2026-04-27 15:10 | 30.41988 | 2.87808 | 2820 ft | 183 kts | 324° |
| 2026-04-27 15:11 | 30.43109 | 2.87201 | 2745 ft | 174 kts | 338° |
| 2026-04-27 15:11 | 30.44312 | 2.86820 | 2776 ft | 182 kts | 345° |
| 2026-04-27 15:11 | 30.45581 | 2.86573 | 2764 ft | 187 kts | 349° |
| 2026-04-27 15:11 | 30.46844 | 2.86426 | 2755 ft | 166 kts | 352° |
| 2026-04-27 15:12 | 30.47911 | 2.86350 | 2743 ft | 147 kts | 353° |
| 2026-04-27 15:12 | 30.48955 | 2.86299 | 2781 ft | 154 kts | 354° |
| 2026-04-27 15:12 | 30.50069 | 2.86250 | 2671 ft | 163 kts | 353° |
| 2026-04-27 15:12 | 30.51195 | 2.86221 | 2365 ft | 161 kts | 356° |
| 2026-04-27 15:13 | 30.52300 | 2.86204 | 2087 ft | 159 kts | 356° |
| 2026-04-27 15:13 | 30.53414 | 2.86187 | 1905 ft | 158 kts | 356° |
| 2026-04-27 15:13 | 30.54522 | 2.86187 | 1731 ft | 157 kts | 356° |
| 2026-04-27 15:13 | 30.55612 | 2.86166 | 1550 ft | 155 kts | 357° |
| 2026-04-27 15:14 | 30.56690 | 2.86165 | 1383 ft | 152 kts | 356° |
| 2026-04-27 15:14 | 30.57729 | 2.86158 | 1317 ft | 139 kts | 358° |
| 2026-04-27 15:14 | 30.58507 | 2.86150 | 1320 ft | 87 kts | 359° |
| 2026-04-27 15:14 | 30.58979 | 2.86146 | 1315 ft | 49 kts | 359° |
| 2026-04-27 15:15 | 30.59188 | 2.86147 | 1315 ft | 17 kts | 5° |
| 2026-04-27 15:15 | 30.59251 | 2.86184 | 1315 ft | 6 kts | 39° |
| 2026-04-27 15:15 | 30.59276 | 2.86179 | 1315 ft | 3 kts | 301° |
| 2026-04-27 15:15 | 30.59261 | 2.86153 | 1315 ft | 5 kts | 206° |
| 2026-04-27 15:16 | 30.59210 | 2.86145 | 1315 ft | 8 kts | 181° |
| 2026-04-27 15:16 | 30.59139 | 2.86146 | 1315 ft | 11 kts | 180° |
| 2026-04-27 15:16 | 30.59046 | 2.86145 | 1315 ft | 14 kts | 181° |
| 2026-04-27 15:16 | 30.58931 | 2.86145 | 1315 ft | 17 kts | 179° |
| 2026-04-27 15:17 | 30.58799 | 2.86147 | 1316 ft | 20 kts | 180° |
| 2026-04-27 15:17 | 30.58649 | 2.86148 | 1318 ft | 22 kts | 180° |
| 2026-04-27 15:17 | 30.58484 | 2.86149 | 1319 ft | 24 kts | 180° |
| 2026-04-27 15:17 | 30.58301 | 2.86148 | 1320 ft | 27 kts | 178° |
| 2026-04-27 15:18 | 30.58103 | 2.86149 | 1320 ft | 29 kts | 180° |
| 2026-04-27 15:18 | 30.57895 | 2.86146 | 1318 ft | 29 kts | 181° |
| 2026-04-27 15:18 | 30.57692 | 2.86147 | 1315 ft | 28 kts | 179° |
| 2026-04-27 15:18 | 30.57494 | 2.86157 | 1312 ft | 27 kts | 175° |
| 2026-04-27 15:19 | 30.57324 | 2.86225 | 1311 ft | 24 kts | 152° |
| 2026-04-27 15:19 | 30.57204 | 2.86302 | 1312 ft | 12 kts | 149° |
| 2026-04-27 15:19 | 30.57142 | 2.86355 | 1312 ft | 9 kts | 130° |
| 2026-04-27 15:19 | 30.57120 | 2.86430 | 1311 ft | 12 kts | 102° |
| 2026-04-27 15:20 | 30.57099 | 2.86545 | 1309 ft | 15 kts | 102° |
| 2026-04-27 15:20 | 30.57084 | 2.86641 | 1310 ft | 5 kts | 79° |
| 2026-04-27 15:20 | 30.57099 | 2.86675 | 1310 ft | 3 kts | 62° |
| 2026-04-27 15:20 | 30.57108 | 2.86693 | 1310 ft | 2 kts | 56° |
| 2026-04-27 15:21 | 30.57116 | 2.86707 | 1310 ft | 0 kts | 57° |